createdAt,value
2019-04-20T00:00:17.031Z,79.1687
2019-04-20T00:01:05.221Z,79.3762
2019-04-20T00:01:52.709Z,79.3762
2019-04-20T00:02:44.062Z,79.3762
2019-04-20T00:03:39.050Z,79.2725
2019-04-20T00:04:29.006Z,79.1687
2019-04-20T00:05:17.130Z,78.9612
2019-04-20T00:06:03.586Z,78.8574
2019-04-20T00:06:52.827Z,78.7537
2019-04-20T00:07:41.832Z,78.5461
2019-04-20T00:08:32.805Z,78.3386
2019-04-20T00:09:24.692Z,78.2349
2019-04-20T00:10:16.993Z,78.1311
2019-04-20T00:11:10.673Z,78.1311
2019-04-20T00:12:03.876Z,78.1311
2019-04-20T00:12:59.708Z,78.1311
2019-04-20T00:13:48.720Z,78.0273
2019-04-20T00:14:33.800Z,78.1311
2019-04-20T00:15:22.138Z,78.1311
2019-04-20T00:16:08.552Z,78.1311
2019-04-20T00:16:55.054Z,78.1311
2019-04-20T00:17:50.842Z,78.2349
2019-04-20T00:18:41.296Z,78.2349
2019-04-20T00:19:32.227Z,78.1311
2019-04-20T00:20:23.516Z,78.0273
2019-04-20T00:21:12.596Z,78.0273
2019-04-20T00:22:06.227Z,78.0273
2019-04-20T00:22:54.099Z,77.9236
2019-04-20T00:23:45.203Z,77.8198
2019-04-20T00:24:36.918Z,77.8198
2019-04-20T00:25:38.614Z,77.7466
2019-04-20T00:26:32.306Z,77.7466
2019-04-20T00:27:32.870Z,77.6428
2019-04-20T00:28:19.482Z,77.6428
2019-04-20T00:29:14.341Z,77.5391
2019-04-20T00:29:58.711Z,77.5391
2019-04-20T00:30:53.323Z,77.5391
2019-04-20T00:31:43.069Z,77.6428
2019-04-20T00:32:39.683Z,77.5391
2019-04-20T00:33:27.110Z,77.5391
2019-04-20T00:34:11.969Z,77.5391
2019-04-20T00:34:55.886Z,77.5391
2019-04-20T00:35:42.269Z,77.5391
2019-04-20T00:36:29.090Z,77.5391
2019-04-20T00:37:16.993Z,77.6428
2019-04-20T00:38:03.460Z,77.6428
2019-04-20T00:38:50.042Z,77.7466
2019-04-20T00:39:36.019Z,77.6428
2019-04-20T00:40:23.686Z,77.6428
2019-04-20T00:41:13.684Z,77.6428
2019-04-20T00:42:06.559Z,77.5391
2019-04-20T00:42:57.963Z,77.5391
2019-04-20T00:43:47.183Z,77.5391
2019-04-20T00:44:38.105Z,77.6794
2019-04-20T00:45:30.568Z,77.6794
2019-04-20T00:46:26.434Z,77.7832
2019-04-20T00:47:22.967Z,77.8870
2019-04-20T00:48:07.985Z,77.8870
2019-04-20T00:49:01.641Z,77.7832
2019-04-20T00:49:58.028Z,77.7832
2019-04-20T00:50:48.722Z,77.7832
2019-04-20T00:51:45.551Z,77.7832
2019-04-20T00:52:33.125Z,77.6794
2019-04-20T00:53:20.410Z,77.6794
2019-04-20T00:54:03.993Z,77.6794
2019-04-20T00:54:51.803Z,77.7832
2019-04-20T00:55:38.130Z,77.7832
2019-04-20T00:56:24.560Z,77.7832
2019-04-20T00:57:20.336Z,77.7832
2019-04-20T00:58:13.309Z,77.6794
2019-04-20T00:59:12.010Z,77.7832
2019-04-20T01:00:09.287Z,77.7832
2019-04-20T01:01:04.089Z,77.7832
2019-04-20T01:01:47.578Z,77.7832
2019-04-20T01:02:37.106Z,77.7832
2019-04-20T01:03:29.213Z,77.7832
2019-04-20T01:04:20.304Z,77.8870
2019-04-20T01:05:11.016Z,77.9907
2019-04-20T01:06:09.717Z,78.0945
2019-04-20T01:06:53.908Z,78.0945
2019-04-20T01:07:39.522Z,78.0945
2019-04-20T01:08:23.366Z,78.0945
2019-04-20T01:09:09.967Z,78.0945
2019-04-20T01:09:56.379Z,78.0945
2019-04-20T01:10:47.224Z,78.0945
2019-04-20T01:11:39.797Z,78.1982
2019-04-20T01:12:31.406Z,78.0945
2019-04-20T01:13:22.849Z,77.9907
2019-04-20T01:14:12.823Z,77.8870
2019-04-20T01:15:05.875Z,77.7832
2019-04-20T01:16:01.003Z,77.7832
2019-04-20T01:16:52.930Z,77.7832
2019-04-20T01:17:37.969Z,78.0273
2019-04-20T01:18:27.837Z,78.2349
2019-04-20T01:19:15.818Z,78.3386
2019-04-20T01:20:04.518Z,78.5095
2019-04-20T01:20:51.497Z,78.6499
2019-04-20T01:21:38.362Z,78.6499
2019-04-20T01:22:28.362Z,78.5461
2019-04-20T01:23:19.417Z,78.4424
2019-04-20T01:24:08.842Z,78.5461
2019-04-20T01:25:06.582Z,78.5461
2019-04-20T01:25:55.824Z,78.5461
2019-04-20T01:26:43.688Z,78.5461
2019-04-20T01:27:51.521Z,78.3386
2019-04-20T01:28:37.300Z,78.1311
2019-04-20T01:29:26.152Z,78.0273
2019-04-20T01:30:17.422Z,78.1311
2019-04-20T01:31:16.599Z,78.1311
2019-04-20T01:32:06.160Z,78.1311
2019-04-20T01:33:12.495Z,78.2349
2019-04-20T01:33:46.154Z,78.3386
2019-04-20T01:34:41.414Z,78.3386
2019-04-20T01:35:35.614Z,78.4424
2019-04-20T01:36:32.995Z,78.3386
2019-04-20T01:37:17.908Z,78.3386
2019-04-20T01:38:11.290Z,78.1311
2019-04-20T01:38:59.918Z,78.0273
2019-04-20T01:39:43.191Z,77.9236
2019-04-20T01:40:27.852Z,77.8198
2019-04-20T01:41:16.127Z,77.7161
2019-04-20T01:42:04.469Z,77.7161
2019-04-20T01:42:51.275Z,77.7161
2019-04-20T01:43:37.599Z,77.9236
2019-04-20T01:44:31.728Z,78.1311
2019-04-20T01:45:23.498Z,78.4424
2019-04-20T01:46:14.692Z,78.5461
2019-04-20T01:47:03.162Z,78.5461
2019-04-20T01:47:55.868Z,78.4424
2019-04-20T01:48:44.620Z,78.3386
2019-04-20T01:49:33.925Z,78.2349
2019-04-20T01:50:27.584Z,78.2349
2019-04-20T01:51:21.212Z,78.2349
2019-04-20T01:52:16.285Z,78.2349
2019-04-20T01:53:09.979Z,78.2349
2019-04-20T01:55:10.245Z,78.5461
2019-04-20T01:55:53.054Z,78.6499
2019-04-20T01:56:40.470Z,78.5461
2019-04-20T01:57:26.162Z,78.5828
2019-04-20T01:58:30.204Z,78.5828
2019-04-20T01:59:16.373Z,78.5461
2019-04-20T02:00:05.313Z,78.5461
2019-04-20T02:00:48.109Z,78.4790
2019-04-20T02:01:40.549Z,78.3752
2019-04-20T02:02:29.569Z,78.2715
2019-04-20T02:03:17.191Z,78.3752
2019-04-20T02:04:05.501Z,78.3752
2019-04-20T02:04:58.861Z,78.4790
2019-04-20T02:05:53.031Z,78.7903
2019-04-20T02:06:44.381Z,78.9978
2019-04-20T02:07:35.491Z,78.9978
2019-04-20T02:08:24.315Z,78.7903
2019-04-20T02:09:18.660Z,78.4790
2019-04-20T02:10:08.314Z,78.3752
2019-04-20T02:10:59.218Z,78.3752
2019-04-20T02:11:51.791Z,78.4790
2019-04-20T02:12:40.866Z,78.9978
2019-04-20T02:13:36.165Z,79.4128
2019-04-20T02:14:28.705Z,79.7241
2019-04-20T02:15:22.127Z,79.8340
2019-04-20T02:16:14.497Z,79.8340
2019-04-20T02:17:08.645Z,79.7974
2019-04-20T02:18:03.346Z,79.6875
2019-04-20T02:18:53.856Z,79.4800
2019-04-20T02:19:52.428Z,79.2725
2019-04-20T02:20:45.865Z,79.0649
2019-04-20T02:21:34.283Z,78.9612
2019-04-20T02:22:26.222Z,78.8574
2019-04-20T02:23:10.585Z,78.7537
2019-04-20T02:23:57.353Z,78.7537
2019-04-20T02:24:42.615Z,78.5461
2019-04-20T02:25:29.139Z,78.5828
2019-04-20T02:26:15.986Z,78.5828
2019-04-20T02:27:02.389Z,78.6865
2019-04-20T02:27:54.946Z,78.8940
2019-04-20T02:29:07.708Z,79.5837
2019-04-20T02:29:50.259Z,80.2124
2019-04-20T02:31:23.090Z,80.4199
2019-04-20T02:32:06.648Z,80.5237
2019-04-20T02:32:36.273Z,80.3162
2019-04-20T02:33:42.464Z,80.0049
2019-04-20T02:34:28.513Z,79.6875
2019-04-20T02:35:36.712Z,79.2725
2019-04-20T02:36:20.858Z,79.1687
2019-04-20T02:37:08.879Z,79.1687
2019-04-20T02:39:05.193Z,79.0649
2019-04-20T02:40:47.535Z,79.2725
2019-04-20T02:41:18.120Z,79.2725
2019-04-20T02:44:09.886Z,78.9612
2019-04-20T02:44:50.023Z,78.9612
2019-04-20T02:46:34.629Z,79.2053
2019-04-20T02:47:35.046Z,79.2053
2019-04-20T02:48:14.062Z,79.2053
2019-04-20T02:49:10.120Z,79.1016
2019-04-20T02:49:59.180Z,78.9978
2019-04-20T02:50:50.191Z,78.6865
2019-04-20T02:51:47.623Z,78.3752
2019-04-20T02:52:38.217Z,78.0640
2019-04-20T02:53:33.029Z,77.7527
2019-04-20T02:55:14.515Z,77.3376
2019-04-20T02:56:06.606Z,77.1301
2019-04-20T02:57:00.659Z,77.0569
2019-04-20T02:58:41.961Z,77.0569
2019-04-20T03:01:07.078Z,76.9531
2019-04-20T03:01:53.491Z,76.8494
2019-04-20T03:02:41.189Z,76.6418
2019-04-20T03:03:26.738Z,76.4709
2019-04-20T03:04:20.286Z,76.3672
2019-04-20T03:05:13.676Z,76.4709
2019-04-20T03:06:04.452Z,76.5747
2019-04-20T03:06:59.392Z,76.6785
2019-04-20T03:07:57.616Z,76.7822
2019-04-20T03:08:47.573Z,76.8860
2019-04-20T03:09:39.986Z,76.8860
2019-04-20T03:10:34.278Z,76.9226
2019-04-20T03:11:32.496Z,76.9226
2019-04-20T03:12:18.742Z,76.8188
2019-04-20T03:13:09.803Z,76.8188
2019-04-20T03:13:57.816Z,76.9226
2019-04-20T03:14:44.742Z,77.1301
2019-04-20T03:15:41.805Z,77.3376
2019-04-20T03:16:31.661Z,77.5452
2019-04-20T03:17:27.262Z,77.6489
2019-04-20T03:18:13.882Z,77.8564
2019-04-20T03:19:03.053Z,78.0701
2019-04-20T03:19:52.539Z,78.3813
2019-04-20T03:20:53.423Z,78.4851
2019-04-20T03:21:47.948Z,78.5889
2019-04-20T03:23:01.068Z,78.5889
2019-04-20T03:23:31.168Z,78.5889
2019-04-20T03:24:26.591Z,78.5889
2019-04-20T03:25:13.540Z,78.7964
2019-04-20T03:26:05.389Z,79.0039
2019-04-20T03:26:54.646Z,79.2114
2019-04-20T03:27:41.451Z,79.3152
2019-04-20T03:28:36.811Z,79.2114
2019-04-20T03:29:23.794Z,79.1077
2019-04-20T03:31:07.458Z,79.0039
2019-04-20T03:33:12.637Z,78.6926
2019-04-20T03:34:13.373Z,78.4851
2019-04-20T03:35:00.834Z,78.2776
2019-04-20T03:35:34.255Z,78.1738
2019-04-20T03:36:34.972Z,78.1738
2019-04-20T03:37:26.734Z,78.2776
2019-04-20T03:38:10.665Z,78.3813
2019-04-20T03:38:57.393Z,78.4851
2019-04-20T03:39:51.434Z,78.5889
2019-04-20T03:40:37.332Z,78.4851
2019-04-20T03:41:25.485Z,78.3813
2019-04-20T03:42:09.337Z,78.4851
2019-04-20T03:42:56.984Z,78.4851
2019-04-20T03:43:45.684Z,78.3813
2019-04-20T03:44:34.202Z,78.3813
2019-04-20T03:45:25.412Z,78.3813
2019-04-20T03:46:17.427Z,78.4851
2019-04-20T03:47:08.799Z,78.3813
2019-04-20T03:48:11.588Z,78.2776
2019-04-20T03:49:05.899Z,78.1738
2019-04-20T03:50:02.631Z,77.9602
2019-04-20T03:50:53.272Z,77.7527
2019-04-20T03:51:46.967Z,77.7527
2019-04-20T03:52:34.273Z,77.7527
2019-04-20T03:53:29.806Z,77.6489
2019-04-20T03:54:13.537Z,77.5818
2019-04-20T03:55:12.836Z,77.6855
2019-04-20T03:55:58.448Z,77.8931
2019-04-20T03:56:49.579Z,77.9968
2019-04-20T03:57:49.790Z,78.1006
2019-04-20T03:58:33.521Z,78.4180
2019-04-20T03:59:21.268Z,78.5217
2019-04-20T04:00:16.304Z,78.7292
2019-04-20T04:01:12.641Z,78.7292
2019-04-20T04:03:09.352Z,79.0039
2019-04-20T04:03:53.262Z,79.2114
2019-04-20T04:04:39.074Z,79.2114
2019-04-20T04:05:27.534Z,79.4189
2019-04-20T04:06:12.923Z,79.4189
2019-04-20T04:06:57.735Z,79.4189
2019-04-20T04:07:55.872Z,79.6265
2019-04-20T04:08:36.431Z,79.8340
2019-04-20T04:09:30.538Z,80.1514
2019-04-20T04:10:25.892Z,80.5664
2019-04-20T04:11:21.857Z,80.6702
2019-04-20T04:12:10.110Z,80.6335
2019-04-20T04:12:49.830Z,80.5298
2019-04-20T04:13:39.762Z,80.5298
2019-04-20T04:14:26.145Z,80.7373
2019-04-20T04:15:12.709Z,80.8411
2019-04-20T04:16:06.107Z,80.8411
2019-04-20T04:16:54.721Z,81.0486
2019-04-20T04:17:44.995Z,81.3599
2019-04-20T04:18:39.483Z,81.5674
2019-04-20T04:19:30.236Z,81.5308
2019-04-20T04:20:19.711Z,81.3232
2019-04-20T04:21:12.885Z,81.0120
2019-04-20T04:22:12.619Z,80.9082
2019-04-20T04:23:10.479Z,80.7007
2019-04-20T04:23:58.792Z,80.3894
2019-04-20T04:24:52.177Z,80.0781
2019-04-20T04:25:42.743Z,79.9744
2019-04-20T04:26:34.163Z,79.8706
2019-04-20T04:27:33.598Z,79.6570
2019-04-20T04:28:13.767Z,79.4495
2019-04-20T04:29:13.559Z,79.4495
2019-04-20T04:30:04.306Z,79.7607
2019-04-20T04:30:58.132Z,79.9744
2019-04-20T04:31:59.538Z,80.1819
2019-04-20T04:33:03.101Z,80.3894
2019-04-20T04:34:22.914Z,80.3894
2019-04-20T04:35:10.623Z,80.1819
2019-04-20T04:36:00.372Z,79.8706
2019-04-20T04:36:59.347Z,79.7607
2019-04-20T04:37:47.118Z,79.4495
2019-04-20T04:38:42.464Z,79.3457
2019-04-20T04:39:30.920Z,79.2419
2019-04-20T04:40:36.979Z,79.1382
2019-04-20T04:41:27.086Z,79.1382
2019-04-20T04:42:11.572Z,78.9307
2019-04-20T04:42:57.891Z,78.8635
2019-04-20T04:43:49.445Z,78.7231
2019-04-20T04:44:34.333Z,78.7598
2019-04-20T04:45:15.509Z,78.7598
2019-04-20T04:46:04.219Z,78.7598
2019-04-20T04:46:57.586Z,78.7598
2019-04-20T04:47:42.908Z,78.7598
2019-04-20T04:48:35.010Z,78.7598
2019-04-20T04:49:28.440Z,78.5522
2019-04-20T04:50:17.566Z,78.4485
2019-04-20T04:51:12.880Z,78.5522
2019-04-20T04:52:05.197Z,78.6560
2019-04-20T04:52:58.848Z,78.9673
2019-04-20T04:53:47.955Z,79.1748
2019-04-20T04:54:42.281Z,79.4861
2019-04-20T04:55:34.810Z,79.6936
2019-04-20T04:56:18.065Z,79.9072
2019-04-20T04:57:05.339Z,79.9072
2019-04-20T04:57:51.601Z,79.9072
2019-04-20T04:58:38.491Z,79.9072
2019-04-20T04:59:25.690Z,79.9072
2019-04-20T05:00:17.939Z,79.9072
2019-04-20T05:01:08.080Z,79.9072
2019-04-20T05:01:58.152Z,79.7974
2019-04-20T05:02:50.592Z,79.7974
2019-04-20T05:04:48.531Z,79.7974
2019-04-20T05:05:35.964Z,79.7974
2019-04-20T05:06:29.221Z,79.8706
2019-04-20T05:07:15.190Z,79.9744
2019-04-20T05:08:02.748Z,80.1819
2019-04-20T05:08:51.445Z,80.3894
2019-04-20T05:09:39.846Z,80.4932
2019-04-20T05:10:28.677Z,80.7007
2019-04-20T05:11:15.310Z,80.8044
2019-04-20T05:12:07.247Z,80.9082
2019-04-20T05:12:54.782Z,81.0120
2019-04-20T05:13:50.053Z,81.0120
2019-04-20T05:14:46.060Z,81.0120
2019-04-20T05:15:41.734Z,81.0791
2019-04-20T05:16:39.830Z,81.2866
2019-04-20T05:17:32.392Z,81.3904
2019-04-20T05:18:19.484Z,81.4941
2019-04-20T05:19:15.890Z,81.4941
2019-04-20T05:20:02.594Z,81.4941
2019-04-20T05:21:00.312Z,81.4941
2019-04-20T05:21:57.439Z,81.4941
2019-04-20T05:22:41.662Z,81.4941
2019-04-20T05:23:24.308Z,81.4941
2019-04-20T05:24:20.768Z,81.4575
2019-04-20T05:25:11.928Z,81.4575
2019-04-20T05:26:08.488Z,81.4575
2019-04-20T05:27:01.738Z,81.4575
2019-04-20T05:27:51.871Z,81.4575
2019-04-20T05:28:33.435Z,81.4575
2019-04-20T05:29:19.688Z,81.4575
2019-04-20T05:30:05.695Z,81.5613
2019-04-20T05:30:57.622Z,81.6650
2019-04-20T05:31:49.391Z,81.8726
2019-04-20T05:32:44.596Z,82.1838
2019-04-20T05:33:42.320Z,82.5623
2019-04-20T05:34:40.056Z,82.8735
2019-04-20T05:35:33.636Z,83.0811
2019-04-20T05:36:19.302Z,83.4961
2019-04-20T05:37:20.943Z,83.8074
2019-04-20T05:38:11.923Z,83.8745
2019-04-20T05:38:58.223Z,83.9783
2019-04-20T05:39:50.122Z,84.1858
2019-04-20T05:40:39.026Z,84.3933
2019-04-20T05:41:29.462Z,84.6008
2019-04-20T05:42:23.434Z,84.5642
2019-04-20T05:43:10.674Z,84.5642
2019-04-20T05:44:02.107Z,84.5642
2019-04-20T05:44:55.936Z,84.3567
2019-04-20T05:45:45.345Z,84.2529
2019-04-20T05:46:40.940Z,84.1492
2019-04-20T05:47:33.460Z,84.0454
2019-04-20T05:48:19.701Z,84.0027
2019-04-20T05:49:20.683Z,84.0027
2019-04-20T05:50:01.013Z,83.8989
2019-04-20T05:50:58.729Z,83.8989
2019-04-20T05:51:49.905Z,83.8989
2019-04-20T05:52:50.207Z,84.0027
2019-04-20T05:53:33.973Z,84.1064
2019-04-20T05:54:31.096Z,84.1736
2019-04-20T05:55:20.921Z,84.2773
2019-04-20T05:56:07.296Z,84.3811
2019-04-20T05:57:07.744Z,84.3811
2019-04-20T05:58:00.707Z,84.4849
2019-04-20T05:58:45.050Z,84.5459
2019-04-20T05:59:45.412Z,84.7534
2019-04-20T06:00:33.561Z,84.8572
2019-04-20T06:01:20.224Z,85.0647
2019-04-20T06:02:15.998Z,85.2356
2019-04-20T06:03:01.724Z,85.5469
2019-04-20T06:03:53.873Z,85.7117
2019-04-20T06:05:01.799Z,85.9863
2019-04-20T06:05:48.877Z,86.3953
2019-04-20T06:06:33.147Z,86.7737
2019-04-20T06:07:25.205Z,87.1460
2019-04-20T06:08:15.601Z,87.4146
2019-04-20T06:09:11.074Z,87.7869
2019-04-20T06:09:59.671Z,88.1165
2019-04-20T06:10:52.146Z,88.4888
2019-04-20T06:11:44.211Z,88.7573
2019-04-20T06:12:35.751Z,89.0259
2019-04-20T06:13:17.362Z,89.2944
2019-04-20T06:14:07.034Z,89.4592
2019-04-20T06:15:05.585Z,89.6240
2019-04-20T06:15:53.958Z,89.6240
2019-04-20T06:16:56.929Z,89.6423
2019-04-20T06:17:46.199Z,89.6423
2019-04-20T06:18:32.736Z,89.4592
2019-04-20T06:19:39.548Z,89.3127
2019-04-20T06:20:21.538Z,89.2700
2019-04-20T06:21:23.509Z,89.1296
2019-04-20T06:22:04.695Z,89.0259
2019-04-20T06:23:01.346Z,88.9832
2019-04-20T06:23:53.202Z,88.8428
2019-04-20T06:24:44.904Z,88.8000
2019-04-20T06:25:54.818Z,88.7573
2019-04-20T06:27:11.044Z,88.4705
2019-04-20T06:28:02.066Z,88.3301
2019-04-20T06:28:49.012Z,88.1226
2019-04-20T06:29:48.360Z,87.9822
2019-04-20T06:30:30.893Z,87.8357
2019-04-20T06:31:34.182Z,87.5916
2019-04-20T06:32:21.487Z,87.4451
2019-04-20T06:33:26.267Z,87.2437
2019-04-20T06:34:20.136Z,87.1033
2019-04-20T06:35:00.546Z,86.8591
2019-04-20T06:36:48.589Z,86.3037
2019-04-20T06:37:36.268Z,85.9619
2019-04-20T06:38:46.833Z,85.5103
2019-04-20T06:39:20.301Z,85.0647
2019-04-20T06:40:31.977Z,84.9243
2019-04-20T06:41:16.507Z,84.7229
2019-04-20T06:42:08.429Z,84.4788
2019-04-20T06:42:39.708Z,84.4788
2019-04-20T06:43:40.982Z,83.9294
2019-04-20T06:44:32.260Z,83.6243
2019-04-20T06:45:27.719Z,83.5876
2019-04-20T06:46:20.244Z,83.2397
2019-04-20T06:48:01.035Z,82.4951
2019-04-20T06:48:59.248Z,82.1472
2019-04-20T06:49:36.816Z,81.9092
2019-04-20T06:50:29.159Z,81.5674
2019-04-20T06:51:23.364Z,81.2622
2019-04-20T06:52:23.145Z,80.9204
2019-04-20T06:53:12.925Z,80.4749
2019-04-20T06:53:49.645Z,80.1758
2019-04-20T06:54:48.726Z,79.9316
2019-04-20T06:55:43.006Z,79.6936
2019-04-20T06:56:29.403Z,79.4922
2019-04-20T06:57:25.580Z,79.0466
2019-04-20T06:58:31.903Z,78.8086
2019-04-20T06:59:12.523Z,78.4058
2019-04-20T07:00:01.220Z,77.8625
2019-04-20T07:00:46.462Z,77.3560
2019-04-20T07:01:48.969Z,76.7151
2019-04-20T07:02:38.650Z,76.1780
2019-04-20T07:03:36.079Z,75.5676
2019-04-20T07:04:33.533Z,75.1648
2019-04-20T07:05:18.965Z,74.7253
2019-04-20T07:06:16.854Z,74.7253
2019-04-20T07:06:56.588Z,74.4934
2019-04-20T07:07:43.352Z,74.3896
2019-04-20T07:08:56.647Z,74.2554
2019-04-20T07:09:31.124Z,73.9197
2019-04-20T07:10:19.515Z,73.3154
2019-04-20T07:11:11.358Z,72.5708
2019-04-20T07:11:59.499Z,71.9666
2019-04-20T07:12:46.960Z,71.7346
2019-04-20T07:13:37.405Z,71.6309
2019-04-20T07:14:19.128Z,71.1975
2019-04-20T07:15:16.316Z,70.8923
2019-04-20T07:16:15.836Z,70.5627
2019-04-20T07:17:10.733Z,70.1599
2019-04-20T07:17:57.023Z,69.8242
2019-04-20T07:18:50.922Z,69.6228
2019-04-20T07:19:36.254Z,69.1223
2019-04-20T07:20:27.813Z,68.7866
2019-04-20T07:21:37.502Z,68.3838
2019-04-20T07:22:25.296Z,68.0481
2019-04-20T07:23:18.432Z,67.7490
2019-04-20T07:24:03.564Z,67.5171
2019-04-20T07:24:54.796Z,67.1814
2019-04-20T07:25:42.228Z,66.8823
2019-04-20T07:26:37.270Z,66.4490
2019-04-20T07:27:23.965Z,65.7166
2019-04-20T07:28:19.697Z,65.2832
2019-04-20T07:29:13.592Z,64.7522
2019-04-20T07:29:58.952Z,64.2212
2019-04-20T07:30:45.406Z,63.4949
2019-04-20T07:31:39.347Z,62.8601
2019-04-20T07:32:38.781Z,62.2314
2019-04-20T07:33:28.348Z,61.5051
2019-04-20T07:34:15.836Z,60.3760
2019-04-20T07:35:09.817Z,59.8511
2019-04-20T07:35:56.218Z,59.4238
2019-04-20T07:37:04.856Z,58.6975
2019-04-20T07:38:41.834Z,57.6416
2019-04-20T07:39:28.079Z,57.2449
2019-04-20T07:40:23.170Z,57.2205
2019-04-20T07:41:12.938Z,56.9946
2019-04-20T07:42:10.787Z,56.6650
2019-04-20T07:42:57.179Z,56.3416
2019-04-20T07:43:52.918Z,55.9143
2019-04-20T07:44:42.553Z,55.4199
2019-04-20T07:45:30.861Z,55.1941
2019-04-20T07:46:37.541Z,54.8950
2019-04-20T07:47:23.713Z,54.4739
2019-04-20T07:48:54.303Z,53.6560
2019-04-20T07:49:46.991Z,53.4302
2019-04-20T07:50:32.245Z,53.1311
2019-04-20T07:51:17.347Z,53.0090
2019-04-20T07:52:01.658Z,52.4902
2019-04-20T07:53:01.510Z,51.7700
2019-04-20T07:53:59.503Z,51.6724
2019-04-20T07:55:12.179Z,51.3489
2019-04-20T07:55:58.128Z,50.9277
2019-04-20T07:56:37.659Z,50.7324
2019-04-20T07:57:26.694Z,50.6104
2019-04-20T07:58:13.323Z,50.5066
2019-04-20T07:58:55.220Z,50.3845
2019-04-20T08:00:01.141Z,50.1648
2019-04-20T08:01:02.551Z,49.5728
2019-04-20T08:01:56.123Z,49.0540
2019-04-20T08:02:45.058Z,48.6572
2019-04-20T08:03:33.783Z,48.8586
2019-04-20T08:04:20.873Z,48.8342
2019-04-20T08:05:08.491Z,48.6328
2019-04-20T08:05:57.269Z,48.2422
2019-04-20T08:06:45.434Z,48.2178
2019-04-20T08:07:39.167Z,48.2178
2019-04-20T08:08:32.661Z,48.0957
2019-04-20T08:09:21.989Z,47.9004
2019-04-20T08:10:06.368Z,47.3816
2019-04-20T08:11:12.362Z,46.7712
2019-04-20T08:12:14.199Z,46.6675
2019-04-20T08:13:02.239Z,46.5515
2019-04-20T08:13:51.211Z,46.5515
2019-04-20T08:14:46.801Z,46.7224
2019-04-20T08:15:42.742Z,46.6003
2019-04-20T08:16:33.595Z,46.2830
2019-04-20T08:17:21.317Z,45.0073
2019-04-20T08:18:08.845Z,45.2820
2019-04-20T08:18:59.469Z,45.3796
2019-04-20T08:19:48.483Z,45.3552
2019-04-20T08:20:41.572Z,45.3369
2019-04-20T08:21:35.174Z,45.3369
2019-04-20T08:22:26.758Z,43.7439
2019-04-20T08:23:17.217Z,42.6636
2019-04-20T08:24:57.681Z,42.1753
2019-04-20T08:25:44.561Z,41.9800
2019-04-20T08:26:31.099Z,41.8823
2019-04-20T08:27:17.941Z,42.4683
2019-04-20T08:28:13.560Z,43.0542
2019-04-20T08:29:03.347Z,41.6809
2019-04-20T08:29:59.022Z,41.5833
2019-04-20T08:30:58.236Z,42.1509
2019-04-20T08:31:46.233Z,42.4500
2019-04-20T08:33:35.017Z,43.2129
2019-04-20T08:34:33.640Z,43.7012
2019-04-20T08:35:23.919Z,43.6768
2019-04-20T08:36:11.872Z,43.8782
2019-04-20T08:37:01.407Z,43.3655
2019-04-20T08:38:14.885Z,42.0715
2019-04-20T08:39:45.122Z,41.8762
2019-04-20T08:40:31.408Z,41.8762
2019-04-20T08:41:17.939Z,41.3879
2019-04-20T08:42:10.192Z,41.2903
2019-04-20T08:43:11.929Z,41.6809
2019-04-20T08:45:04.174Z,41.2659
2019-04-20T08:45:41.702Z,40.4663
2019-04-20T08:46:34.415Z,39.7827
2019-04-20T08:47:27.385Z,40.5640
2019-04-20T08:48:17.337Z,40.0574
2019-04-20T08:49:08.374Z,38.6902
2019-04-20T08:50:03.811Z,39.3738
2019-04-20T08:50:50.667Z,38.5925
2019-04-20T08:52:55.634Z,37.9883
2019-04-20T08:53:27.637Z,38.6719
2019-04-20T08:54:14.127Z,39.0625
2019-04-20T08:55:04.974Z,39.0381
2019-04-20T08:55:50.091Z,39.0381
2019-04-20T08:56:36.001Z,39.0198
2019-04-20T08:57:13.410Z,39.2151
2019-04-20T08:58:00.012Z,38.9038
2019-04-20T08:58:46.382Z,39.0991
2019-04-20T08:59:35.052Z,39.1785
2019-04-20T09:00:29.311Z,39.3555
2019-04-20T09:01:20.226Z,39.0625
2019-04-20T09:02:09.013Z,38.2629
2019-04-20T09:03:06.737Z,37.7747
2019-04-20T09:04:00.199Z,36.5112
2019-04-20T09:04:49.037Z,36.3159
2019-04-20T09:05:42.464Z,36.3159
2019-04-20T09:06:36.463Z,36.9995
2019-04-20T09:07:20.234Z,36.9019
2019-04-20T09:08:14.632Z,36.4136
2019-04-20T09:09:20.704Z,36.6089
2019-04-20T09:10:16.646Z,36.6089
2019-04-20T09:11:04.237Z,36.9995
2019-04-20T09:11:54.282Z,37.1765
2019-04-20T09:12:40.792Z,35.5225
2019-04-20T09:13:26.954Z,35.5225
2019-04-20T09:14:09.345Z,34.1736
2019-04-20T09:14:57.327Z,34.3689
2019-04-20T09:15:44.736Z,32.9102
2019-04-20T09:16:40.901Z,32.8125
2019-04-20T09:17:27.218Z,33.5876
2019-04-20T09:18:22.052Z,34.2712
2019-04-20T09:19:09.411Z,34.1736
2019-04-20T09:20:04.710Z,33.5876
2019-04-20T09:20:55.841Z,33.8806
2019-04-20T09:21:48.302Z,34.4482
2019-04-20T09:22:40.879Z,34.8206
2019-04-20T09:23:36.568Z,35.1135
2019-04-20T09:24:38.175Z,35.0952
2019-04-20T09:25:46.867Z,33.6182
2019-04-20T09:26:16.182Z,33.0383
2019-04-20T09:27:04.541Z,33.5266
2019-04-20T09:27:50.188Z,34.1064
2019-04-20T09:28:40.546Z,34.3994
2019-04-20T09:29:35.750Z,33.7036
2019-04-20T09:30:30.621Z,33.7036
2019-04-20T09:31:22.651Z,34.0881
2019-04-20T09:32:20.898Z,34.2834
2019-04-20T09:33:09.844Z,34.5764
2019-04-20T09:34:01.517Z,33.6853
2019-04-20T09:34:54.342Z,33.2947
2019-04-20T09:35:45.880Z,33.4900
2019-04-20T09:36:35.289Z,33.3801
2019-04-20T09:37:27.893Z,33.6670
2019-04-20T09:38:15.512Z,34.0393
2019-04-20T09:39:01.083Z,34.2346
2019-04-20T09:40:10.935Z,34.0210
2019-04-20T09:40:50.771Z,34.3140
2019-04-20T09:41:50.784Z,34.4116
2019-04-20T09:42:18.327Z,33.1482
2019-04-20T09:43:04.707Z,33.2458
2019-04-20T09:43:52.480Z,33.5388
2019-04-20T09:44:42.669Z,33.5388
2019-04-20T09:45:38.200Z,33.7158
2019-04-20T09:46:24.277Z,33.5205
2019-04-20T09:47:12.340Z,33.4229
2019-04-20T09:48:00.561Z,33.4229
2019-04-20T09:48:55.702Z,33.5205
2019-04-20T09:49:54.127Z,33.7952
2019-04-20T09:50:56.101Z,33.5999
2019-04-20T09:51:40.070Z,33.4900
2019-04-20T09:52:29.110Z,33.4900
2019-04-20T09:53:24.808Z,33.2947
2019-04-20T09:54:18.630Z,33.6670
2019-04-20T09:55:07.842Z,33.7646
2019-04-20T09:56:01.928Z,32.6965
2019-04-20T09:56:55.593Z,31.9275
2019-04-20T09:57:46.709Z,32.1167
2019-04-20T09:58:31.638Z,32.4097
2019-04-20T09:59:28.387Z,32.7942
2019-04-20T10:00:19.319Z,32.9712
2019-04-20T10:01:08.423Z,33.3618
2019-04-20T10:01:50.814Z,33.0688
2019-04-20T10:02:39.415Z,33.2642
2019-04-20T10:03:27.162Z,33.5510
2019-04-20T10:04:13.276Z,33.7463
2019-04-20T10:05:00.279Z,34.0210
2019-04-20T10:05:47.602Z,33.9233
2019-04-20T10:06:36.146Z,34.4055
2019-04-20T10:07:26.152Z,33.9050
2019-04-20T10:08:15.421Z,33.9050
2019-04-20T10:09:03.865Z,33.8074
2019-04-20T10:09:52.078Z,33.9050
2019-04-20T10:10:42.665Z,33.9050
2019-04-20T10:11:31.840Z,33.9844
2019-04-20T10:12:19.641Z,32.2449
2019-04-20T10:13:07.347Z,32.0679
2019-04-20T10:13:54.383Z,32.0679
2019-04-20T10:14:42.436Z,31.8787
2019-04-20T10:15:30.958Z,31.7993
2019-04-20T10:16:17.799Z,32.0862
2019-04-20T10:17:05.690Z,32.2815
2019-04-20T10:17:53.942Z,32.0862
2019-04-20T10:18:45.486Z,31.9763
2019-04-20T10:19:35.610Z,31.6833
2019-04-20T10:20:29.796Z,32.2632
2019-04-20T10:21:15.888Z,31.2988
2019-04-20T10:22:02.562Z,31.5857
2019-04-20T10:22:48.911Z,32.4585
2019-04-20T10:23:36.529Z,32.6477
2019-04-20T10:24:24.293Z,32.6477
2019-04-20T10:25:10.878Z,32.0679
2019-04-20T10:25:58.442Z,31.9763
2019-04-20T10:26:46.294Z,31.7810
2019-04-20T10:27:32.782Z,31.6711
2019-04-20T10:28:19.473Z,32.0557
2019-04-20T10:29:05.791Z,32.3425
2019-04-20T10:29:53.467Z,31.9397
2019-04-20T10:30:40.878Z,31.5552
2019-04-20T10:31:28.510Z,31.2683
2019-04-20T10:32:16.045Z,30.7861
2019-04-20T10:33:05.664Z,29.7241
2019-04-20T10:33:53.466Z,29.3518
2019-04-20T10:34:40.926Z,29.6387
2019-04-20T10:35:27.594Z,30.0293
2019-04-20T10:36:15.315Z,29.7241
2019-04-20T10:37:01.739Z,29.3396
2019-04-20T10:37:49.325Z,29.4312